createdAt,value
2022-08-09T00:00:01.134Z,0
2022-08-09T00:01:02.012Z,0
2022-08-09T00:02:04.165Z,0
2022-08-09T00:03:10.970Z,0
2022-08-09T00:04:11.195Z,0
2022-08-09T00:06:16.786Z,0
2022-08-09T00:06:17.220Z,0
2022-08-09T00:07:13.692Z,0
2022-08-09T00:08:31.688Z,0
2022-08-09T00:09:17.757Z,0
2022-08-09T00:10:21.298Z,0
2022-08-09T00:11:24.769Z,0
2022-08-09T00:12:24.398Z,0.18
2022-08-09T00:13:25.784Z,0
2022-08-09T00:14:28.033Z,0
2022-08-09T00:15:35.665Z,0
2022-08-09T00:16:36.871Z,0
2022-08-09T00:18:04.767Z,0
2022-08-09T00:18:36.185Z,0
2022-08-09T00:19:38.568Z,0
2022-08-09T00:20:41.615Z,0
2022-08-09T00:21:43.332Z,0
2022-08-09T00:22:44.817Z,0
2022-08-09T00:23:56.899Z,0
2022-08-09T00:24:49.104Z,0
2022-08-09T00:25:51.729Z,0
2022-08-09T00:26:52.729Z,0
2022-08-09T00:27:54.739Z,0
2022-08-09T00:28:56.797Z,0
2022-08-09T00:30:10.561Z,0
2022-08-09T00:31:00.752Z,0
2022-08-09T00:32:03.223Z,0
2022-08-09T00:33:04.783Z,0
2022-08-09T00:34:06.790Z,0
2022-08-09T00:35:08.834Z,0
2022-08-09T00:36:10.770Z,0
2022-08-09T00:37:13.455Z,0
2022-08-09T00:38:15.109Z,0
2022-08-09T00:40:09.970Z,0
2022-08-09T00:40:19.663Z,0
2022-08-09T00:44:08.962Z,0
2022-08-09T00:44:09.233Z,0
2022-08-09T00:45:03.520Z,0
2022-08-09T00:46:02.822Z,0
2022-08-09T00:47:05.830Z,0
2022-08-09T00:48:06.783Z,0
2022-08-09T00:49:08.778Z,0
2022-08-09T00:50:14.371Z,0
2022-08-09T00:51:13.005Z,0
2022-08-09T00:52:16.112Z,0
2022-08-09T00:53:16.786Z,0
2022-08-09T00:54:18.777Z,0
2022-08-09T00:55:33.095Z,0
2022-08-09T00:56:22.781Z,0
2022-08-09T00:57:34.170Z,0
2022-08-09T00:58:27.743Z,0
2022-08-09T00:59:31.611Z,0
2022-08-09T01:00:31.424Z,0
2022-08-09T01:01:44.475Z,0
2022-08-09T01:02:34.904Z,0
2022-08-09T01:03:40.779Z,0
2022-08-09T01:04:38.808Z,0
2022-08-09T01:05:46.321Z,0
2022-08-09T01:06:53.711Z,0
2022-08-09T01:07:59.621Z,0
2022-08-09T01:08:48.967Z,0
2022-08-09T01:09:48.810Z,0
2022-08-09T01:10:51.282Z,0
2022-08-09T01:11:53.505Z,0
2022-08-09T01:12:54.806Z,0
2022-08-09T01:13:59.746Z,0
2022-08-09T01:14:58.816Z,0
2022-08-09T01:16:00.911Z,0
2022-08-09T01:17:02.808Z,0
2022-08-09T01:18:05.117Z,0
2022-08-09T01:19:06.851Z,0
2022-08-09T01:20:08.853Z,0
2022-08-09T01:21:10.840Z,0
2022-08-09T01:22:15.382Z,0
2022-08-09T01:24:01.530Z,0
2022-08-09T01:24:16.820Z,0
2022-08-09T01:25:19.175Z,0
2022-08-09T01:26:20.811Z,0
2022-08-09T01:27:22.846Z,0
2022-08-09T01:28:25.444Z,0
2022-08-09T01:29:28.005Z,0
2022-08-09T01:30:35.971Z,0
2022-08-09T01:32:29.249Z,0
2022-08-09T01:32:33.972Z,0
2022-08-09T01:33:34.858Z,0
2022-08-09T01:34:37.692Z,0
2022-08-09T01:35:39.150Z,0
2022-08-09T01:36:40.848Z,0
2022-08-09T01:38:06.225Z,0
2022-08-09T01:38:46.510Z,0
2022-08-09T01:39:46.958Z,0
2022-08-09T01:40:52.544Z,0
2022-08-09T01:41:53.343Z,0
2022-08-09T01:42:52.855Z,0
2022-08-09T01:43:54.853Z,0
2022-08-09T01:44:56.880Z,0
2022-08-09T01:45:58.919Z,0
2022-08-09T01:47:00.830Z,0
2022-08-09T01:48:05.849Z,0
2022-08-09T01:49:09.825Z,0
2022-08-09T01:50:07.856Z,0
2022-08-09T01:51:08.896Z,0
2022-08-09T01:52:10.859Z,0
2022-08-09T01:53:19.708Z,0
2022-08-09T01:54:14.871Z,0
2022-08-09T01:55:16.871Z,0
2022-08-09T01:56:18.857Z,0
2022-08-09T01:57:21.650Z,0
2022-08-09T01:58:24.075Z,0
2022-08-09T01:59:24.887Z,0
2022-08-09T02:00:35.381Z,0
2022-08-09T02:01:30.731Z,0
2022-08-09T02:02:31.845Z,0
2022-08-09T02:03:33.388Z,0
2022-08-09T02:04:34.903Z,0
2022-08-09T02:05:38.262Z,0
2022-08-09T02:06:38.951Z,0
2022-08-09T02:08:36.285Z,0
2022-08-09T02:08:58.191Z,0
2022-08-09T02:09:44.924Z,0
2022-08-09T02:10:50.821Z,0
2022-08-09T02:11:48.902Z,0
2022-08-09T02:12:50.934Z,0
2022-08-09T02:13:55.219Z,0
2022-08-09T02:14:54.927Z,0
2022-08-09T02:15:56.977Z,0
2022-08-09T02:17:00.223Z,0
2022-08-09T02:18:10.031Z,0
2022-08-09T02:19:02.912Z,0
2022-08-09T02:20:05.035Z,0
2022-08-09T02:21:07.001Z,0
2022-08-09T02:22:08.939Z,0
2022-08-09T02:23:11.136Z,0
2022-08-09T02:24:12.908Z,0
2022-08-09T02:25:15.162Z,0
2022-08-09T02:26:25.433Z,0
2022-08-09T02:27:18.933Z,0
2022-08-09T02:28:21.154Z,0
2022-08-09T02:29:22.944Z,0
2022-08-09T02:30:25.380Z,0
2022-08-09T02:31:26.986Z,0
2022-08-09T02:32:28.935Z,0
2022-08-09T02:33:37.557Z,0
2022-08-09T02:34:41.122Z,0
2022-08-09T02:36:01.135Z,0
2022-08-09T02:36:36.955Z,0
2022-08-09T02:37:38.962Z,0
2022-08-09T02:38:41.162Z,0
2022-08-09T02:39:45.301Z,0
2022-08-09T02:40:45.054Z,0
2022-08-09T02:41:46.920Z,0
2022-08-09T02:42:51.066Z,0
2022-08-09T02:43:54.399Z,0
2022-08-09T02:44:52.975Z,0
2022-08-09T02:45:55.031Z,0
2022-08-09T02:46:56.951Z,0
2022-08-09T02:47:59.746Z,0
2022-08-09T02:49:00.968Z,0
2022-08-09T02:50:03.139Z,0
2022-08-09T02:51:04.991Z,0
2022-08-09T02:52:06.976Z,0
2022-08-09T02:53:09.033Z,0
2022-08-09T02:54:11.027Z,0
2022-08-09T02:55:20.541Z,0
2022-08-09T02:56:14.961Z,0
2022-08-09T02:57:23.039Z,0
2022-08-09T02:58:33.161Z,0
2022-08-09T02:59:26.102Z,0
2022-08-09T03:00:25.369Z,0
2022-08-09T03:01:29.236Z,0
2022-08-09T03:02:27.031Z,0
2022-08-09T03:03:37.438Z,0
2022-08-09T03:04:31.128Z,0
2022-08-09T03:05:34.122Z,0
2022-08-09T03:06:34.984Z,0
2022-08-09T03:07:36.992Z,0
2022-08-09T03:08:39.506Z,0
2022-08-09T03:09:42.758Z,0
2022-08-09T03:10:43.753Z,0
2022-08-09T03:12:06.859Z,0
2022-08-09T03:12:49.410Z,0
2022-08-09T03:13:59.796Z,0
2022-08-09T03:14:50.999Z,0
2022-08-09T03:16:04.439Z,0
2022-08-09T03:16:55.050Z,0
2022-08-09T03:17:58.065Z,0
2022-08-09T03:18:59.040Z,0
2022-08-09T03:20:03.641Z,0
2022-08-09T03:21:03.059Z,0
2022-08-09T03:22:04.995Z,0
2022-08-09T03:23:14.830Z,0
2022-08-09T03:24:09.914Z,0.27
2022-08-09T03:25:22.140Z,0.35
2022-08-09T03:26:13.510Z,0.28
2022-08-09T03:27:17.012Z,0.25
2022-08-09T03:28:17.048Z,0.21
2022-08-09T03:29:22.559Z,0.23
2022-08-09T03:30:29.425Z,0.11
2022-08-09T03:31:23.093Z,0.19
2022-08-09T03:32:25.087Z,0.18
2022-08-09T03:33:27.037Z,0
2022-08-09T03:34:29.017Z,0
2022-08-09T03:35:44.563Z,0
2022-08-09T03:36:33.076Z,0
2022-08-09T03:37:54.976Z,0
2022-08-09T03:38:37.210Z,0
2022-08-09T03:39:39.059Z,0
2022-08-09T03:40:41.097Z,0
2022-08-09T03:41:46.117Z,0
2022-08-09T03:42:45.044Z,0
2022-08-09T03:43:52.082Z,0.23
2022-08-09T03:44:49.043Z,0.26
2022-08-09T03:46:03.400Z,0.13
2022-08-09T03:46:53.092Z,0
2022-08-09T03:47:55.051Z,0
2022-08-09T03:48:57.110Z,0
2022-08-09T03:49:59.095Z,0
2022-08-09T03:51:01.051Z,0
2022-08-09T03:52:03.629Z,0.38
2022-08-09T03:53:05.136Z,0.77
2022-08-09T03:54:10.809Z,0.7
2022-08-09T03:55:09.731Z,0.51
2022-08-09T03:56:11.079Z,0.33
2022-08-09T03:57:18.188Z,0.52
2022-08-09T03:58:16.444Z,0.61
2022-08-09T03:59:20.888Z,0.59
2022-08-09T04:00:19.093Z,0.8
2022-08-09T04:01:21.129Z,0.64
2022-08-09T04:02:26.302Z,0.34
2022-08-09T04:03:35.668Z,0.45
2022-08-09T04:04:27.082Z,0.23
2022-08-09T04:05:29.077Z,0.2
2022-08-09T04:06:31.069Z,0
2022-08-09T04:07:34.010Z,0
2022-08-09T04:08:35.090Z,0.36
2022-08-09T04:09:42.399Z,0.43
2022-08-09T04:10:39.153Z,0.41
2022-08-09T04:11:41.181Z,0.54
2022-08-09T04:12:44.484Z,0.7
2022-08-09T04:14:37.965Z,0.44
2022-08-09T04:15:01.307Z,0.3
2022-08-09T04:16:18.999Z,0.15
2022-08-09T04:16:51.115Z,0.14
2022-08-09T04:17:53.161Z,0
2022-08-09T04:18:55.131Z,0.28
2022-08-09T04:19:57.110Z,0.28
2022-08-09T04:20:59.100Z,0.15
2022-08-09T04:22:01.145Z,0.16
2022-08-09T04:23:03.205Z,0.12
2022-08-09T04:24:05.113Z,0
2022-08-09T04:25:07.126Z,0
2022-08-09T04:26:09.113Z,0
2022-08-09T04:27:11.145Z,0
2022-08-09T04:28:13.176Z,0
2022-08-09T04:29:15.537Z,0
2022-08-09T04:30:17.129Z,0
2022-08-09T04:31:19.114Z,0
2022-08-09T04:32:23.640Z,0.31
2022-08-09T04:33:23.162Z,0.47
2022-08-09T04:34:30.387Z,0.45
2022-08-09T04:35:27.131Z,0.73
2022-08-09T04:36:29.130Z,0.63
2022-08-09T04:37:42.323Z,0.74
2022-08-09T04:38:33.148Z,0.61
2022-08-09T04:39:40.473Z,0.6
2022-08-09T04:40:37.217Z,0.63
2022-08-09T04:41:43.883Z,0.53
2022-08-09T04:42:41.230Z,0.53
2022-08-09T04:43:46.712Z,0.45
2022-08-09T04:44:49.022Z,0.24
2022-08-09T04:45:53.390Z,0
2022-08-09T04:46:56.999Z,0
2022-08-09T04:47:59.626Z,0
2022-08-09T04:48:57.818Z,0
2022-08-09T04:49:55.741Z,0
2022-08-09T04:50:57.189Z,0
2022-08-09T04:51:59.184Z,0.34
2022-08-09T04:53:01.139Z,0.53
2022-08-09T04:54:03.376Z,0.25
2022-08-09T04:55:07.655Z,0
2022-08-09T04:56:07.152Z,0
2022-08-09T04:57:09.363Z,0
2022-08-09T04:58:11.207Z,0
2022-08-09T04:59:15.628Z,0.34
2022-08-09T05:00:16.798Z,0.27
2022-08-09T05:01:18.707Z,0.47
2022-08-09T05:02:19.163Z,0.43
2022-08-09T05:03:40.708Z,0.34
2022-08-09T05:04:23.296Z,0.29
2022-08-09T05:05:31.711Z,0.12
2022-08-09T05:06:28.547Z,0
2022-08-09T05:07:31.976Z,0.34
2022-08-09T05:08:31.184Z,0.18
2022-08-09T05:09:41.963Z,0.08
2022-08-09T05:10:36.678Z,0.39
2022-08-09T05:11:37.264Z,0.16
2022-08-09T05:12:39.208Z,0
2022-08-09T05:13:41.177Z,0
2022-08-09T05:14:43.213Z,0
2022-08-09T05:15:48.322Z,0
2022-08-09T05:16:58.643Z,0
2022-08-09T05:18:37.305Z,0
2022-08-09T05:18:57.841Z,0
2022-08-09T05:19:56.535Z,0.23
2022-08-09T05:20:55.196Z,0.23
2022-08-09T05:21:57.190Z,0.14
2022-08-09T05:23:50.741Z,0
2022-08-09T05:24:02.658Z,0
2022-08-09T05:25:03.253Z,0
2022-08-09T05:26:05.240Z,0
2022-08-09T05:27:07.222Z,0
2022-08-09T05:28:09.208Z,0
2022-08-09T05:29:17.097Z,0
2022-08-09T05:30:13.279Z,0
2022-08-09T05:31:15.210Z,0
2022-08-09T05:32:17.211Z,0.1
2022-08-09T05:33:19.203Z,0
2022-08-09T05:34:21.291Z,0
2022-08-09T05:35:23.204Z,0
2022-08-09T05:36:26.401Z,0.24
2022-08-09T05:37:27.225Z,0.37
2022-08-09T05:38:29.219Z,0.55
2022-08-09T05:39:35.966Z,0.88
2022-08-09T05:40:33.230Z,0.69
2022-08-09T05:41:35.273Z,0.24
2022-08-09T05:42:37.514Z,0.31
2022-08-09T05:43:39.243Z,0.24
2022-08-09T05:44:41.248Z,0
2022-08-09T05:45:43.717Z,0
2022-08-09T05:46:45.260Z,0.29
2022-08-09T05:47:51.907Z,0.3
2022-08-09T05:48:58.735Z,0.36
2022-08-09T05:50:16.910Z,0.57
2022-08-09T05:51:11.973Z,0.54
2022-08-09T05:51:56.301Z,0.76
2022-08-09T05:52:58.276Z,0.75
2022-08-09T05:54:00.266Z,0.54
2022-08-09T05:55:02.912Z,0.32
2022-08-09T05:56:04.274Z,0.43
2022-08-09T05:57:06.449Z,0.2
2022-08-09T05:58:08.289Z,0.12
2022-08-09T05:59:10.628Z,0.3
2022-08-09T06:00:12.379Z,0.48
2022-08-09T06:01:15.886Z,0.28
2022-08-09T06:02:16.899Z,0.3
2022-08-09T06:03:20.125Z,0.39
2022-08-09T06:04:23.259Z,0.28
2022-08-09T06:05:31.448Z,0.52
2022-08-09T06:06:24.266Z,0.49
2022-08-09T06:07:26.327Z,0.4
2022-08-09T06:08:28.264Z,0.5
2022-08-09T06:09:40.965Z,0.31
2022-08-09T06:10:32.269Z,0.48
2022-08-09T06:11:40.741Z,0.5
2022-08-09T06:12:37.598Z,0.53
2022-08-09T06:13:39.347Z,0.58
2022-08-09T06:14:41.482Z,0.4
2022-08-09T06:15:53.193Z,0.5
2022-08-09T06:16:54.292Z,0.57
2022-08-09T06:17:56.336Z,0.53
2022-08-09T06:18:58.356Z,0.65
2022-08-09T06:20:00.289Z,0.63
2022-08-09T06:21:02.550Z,0.55
2022-08-09T06:22:04.291Z,0.46
2022-08-09T06:23:07.209Z,0.76
2022-08-09T06:24:09.381Z,0.36
2022-08-09T06:25:12.384Z,0.12
2022-08-09T06:26:13.301Z,0.09
2022-08-09T06:27:15.493Z,0.52
2022-08-09T06:28:17.321Z,0.38
2022-08-09T06:29:19.383Z,0.34
2022-08-09T06:30:21.624Z,0
2022-08-09T06:31:30.421Z,0.75
2022-08-09T06:32:53.719Z,0.57
2022-08-09T06:33:40.396Z,0.43
2022-08-09T06:34:29.790Z,0.05
2022-08-09T06:35:35.919Z,0.09
2022-08-09T06:36:33.335Z,0.14
2022-08-09T06:37:50.898Z,0.42
2022-08-09T06:38:37.866Z,0.4
2022-08-09T06:39:48.957Z,0.77
2022-08-09T06:40:41.482Z,0.65
2022-08-09T06:42:08.392Z,0.43
2022-08-09T06:42:46.715Z,0.37
2022-08-09T06:43:47.343Z,0.31
2022-08-09T06:44:51.947Z,0.4
2022-08-09T06:46:05.771Z,0.19
2022-08-09T06:46:55.092Z,0
2022-08-09T06:47:58.075Z,0.55
2022-08-09T06:49:00.267Z,0
2022-08-09T06:50:12.375Z,0.2
2022-08-09T06:51:05.304Z,0.45
2022-08-09T06:52:07.799Z,0.52
2022-08-09T06:53:09.368Z,0.49
2022-08-09T06:54:14.900Z,0.21
2022-08-09T06:55:13.969Z,0.36
2022-08-09T06:56:16.868Z,0.35
2022-08-09T06:57:19.536Z,0.65
2022-08-09T06:58:28.615Z,0.41
2022-08-09T07:00:53.247Z,0
2022-08-09T07:00:53.646Z,0.13
2022-08-09T07:01:35.796Z,0.56
2022-08-09T07:02:31.994Z,0.28
2022-08-09T07:03:33.361Z,0.11
2022-08-09T07:04:35.357Z,0.37
2022-08-09T07:05:53.925Z,0.26
2022-08-09T07:06:39.410Z,0.46
2022-08-09T07:07:59.170Z,0.57
2022-08-09T07:08:44.975Z,0.46
2022-08-09T07:09:54.077Z,0.61
2022-08-09T07:10:48.584Z,0.13
2022-08-09T07:11:52.411Z,0.35
2022-08-09T07:12:57.349Z,0.13
2022-08-09T07:14:04.020Z,0.22
2022-08-09T07:14:59.839Z,0.72
2022-08-09T07:16:40.034Z,0.29
2022-08-09T07:17:08.141Z,0.43
2022-08-09T07:18:10.314Z,0.41
2022-08-09T07:19:10.395Z,0.18
2022-08-09T07:20:12.395Z,0.62
2022-08-09T07:21:15.242Z,0.57
2022-08-09T07:22:27.576Z,0.56
2022-08-09T07:23:21.752Z,0.39
2022-08-09T07:24:31.339Z,0.18
2022-08-09T07:25:26.179Z,0.17
2022-08-09T07:26:28.386Z,0.2
2022-08-09T07:27:34.306Z,0.26
2022-08-09T07:28:34.593Z,0.46
2022-08-09T07:29:38.183Z,0.14
2022-08-09T07:30:38.477Z,0.28
2022-08-09T07:31:44.866Z,0.27
2022-08-09T07:32:42.639Z,0.12
2022-08-09T07:33:52.345Z,0.19
2022-08-09T07:34:46.521Z,0
2022-08-09T07:35:53.775Z,0
2022-08-09T07:36:52.988Z,0.25
2022-08-09T07:37:59.269Z,0.31
2022-08-09T07:39:00.676Z,0.12
2022-08-09T07:40:00.470Z,0.37
2022-08-09T07:41:11.374Z,0.32
2022-08-09T07:42:05.071Z,0.31
2022-08-09T07:43:06.972Z,0.5
2022-08-09T07:44:08.465Z,0.5
2022-08-09T07:45:15.151Z,0.57
2022-08-09T07:46:12.782Z,0.29
2022-08-09T07:47:16.239Z,0.15
2022-08-09T07:48:22.776Z,0.68
2022-08-09T07:49:25.383Z,0.43
2022-08-09T07:50:32.898Z,0.27
2022-08-09T07:52:04.107Z,0.26
2022-08-09T07:52:31.696Z,0.2
2022-08-09T07:53:36.381Z,0
2022-08-09T07:54:35.446Z,0.24
2022-08-09T07:55:41.087Z,0.33
2022-08-09T07:56:45.274Z,0.26
2022-08-09T07:57:46.457Z,0.41
2022-08-09T07:58:44.510Z,0.75
2022-08-09T07:59:52.352Z,0.57
2022-08-09T08:00:55.922Z,0.66
2022-08-09T08:01:52.970Z,0.58
2022-08-09T08:02:55.809Z,0.61
2022-08-09T08:03:57.747Z,0.62
2022-08-09T08:04:59.471Z,0.63
2022-08-09T08:06:01.523Z,0.69
2022-08-09T08:07:09.820Z,0.67
2022-08-09T08:08:44.967Z,0.52
2022-08-09T08:09:10.254Z,0.28
2022-08-09T08:10:12.586Z,0.69
2022-08-09T08:11:15.469Z,0.68
2022-08-09T08:12:25.372Z,0.42
2022-08-09T08:13:18.526Z,0.55
2022-08-09T08:14:20.999Z,0.84
2022-08-09T08:15:23.339Z,0.75
2022-08-09T08:16:30.119Z,0.6
2022-08-09T08:17:35.652Z,0.45
2022-08-09T08:18:28.531Z,0.37
2022-08-09T08:19:31.430Z,0.26
2022-08-09T08:20:33.473Z,0.37
2022-08-09T08:21:39.409Z,0.64
2022-08-09T08:22:36.676Z,0.55
2022-08-09T08:23:38.513Z,0.58
2022-08-09T08:24:41.671Z,0.55
2022-08-09T08:25:44.232Z,0.46
2022-08-09T08:26:55.428Z,0.52
2022-08-09T08:27:46.589Z,0.48
2022-08-09T08:28:48.522Z,0.4
2022-08-09T08:29:50.564Z,0.55
2022-08-09T08:30:52.584Z,0.3
2022-08-09T08:32:02.795Z,0.16
2022-08-09T08:32:56.523Z,0.22
2022-08-09T08:33:58.545Z,0.52
2022-08-09T08:35:00.518Z,0.37
2022-08-09T08:36:03.640Z,0.87
2022-08-09T08:37:04.518Z,0.38
2022-08-09T08:38:09.203Z,0.33
2022-08-09T08:39:08.735Z,0.65
2022-08-09T08:40:10.534Z,0.3
2022-08-09T08:41:12.600Z,0.71
2022-08-09T08:42:15.867Z,0.53
2022-08-09T08:43:16.542Z,0.13
2022-08-09T08:44:18.611Z,0.44
2022-08-09T08:45:32.820Z,0.64
2022-08-09T08:46:35.397Z,0.72
2022-08-09T08:47:33.553Z,0.53
2022-08-09T08:48:35.574Z,0.31
2022-08-09T08:49:38.746Z,0.2
2022-08-09T08:50:39.560Z,0.18
2022-08-09T08:52:00.104Z,0
2022-08-09T08:52:53.213Z,0.45
2022-08-09T08:54:02.751Z,0.4
2022-08-09T08:54:48.168Z,0.32
2022-08-09T08:55:52.337Z,0.11
2022-08-09T08:56:51.594Z,0.21
2022-08-09T08:57:56.239Z,0.58
2022-08-09T08:58:55.571Z,1.06
2022-08-09T08:59:57.671Z,1.42
2022-08-09T09:00:59.556Z,1.67
2022-08-09T09:02:01.905Z,1.01
2022-08-09T09:03:08.433Z,0.97
2022-08-09T09:04:05.580Z,0.87
2022-08-09T09:05:10.056Z,0.71
2022-08-09T09:06:10.477Z,0.73
2022-08-09T09:07:12.569Z,0.96
2022-08-09T09:08:29.636Z,0.68
2022-08-09T09:09:20.898Z,0.89
2022-08-09T09:10:18.608Z,0.61
2022-08-09T09:11:20.619Z,0.38
2022-08-09T09:12:22.590Z,0.45
2022-08-09T09:13:25.158Z,0.69
2022-08-09T09:14:26.616Z,0.49
2022-08-09T09:15:28.980Z,0.22
2022-08-09T09:16:32.584Z,0.33
2022-08-09T09:17:48.787Z,0.84
2022-08-09T09:18:34.617Z,0.37
2022-08-09T09:19:41.014Z,0.27
2022-08-09T09:20:38.627Z,0.49
2022-08-09T09:21:43.317Z,0.31
2022-08-09T09:22:42.625Z,0.34
2022-08-09T09:23:48.932Z,0.43
2022-08-09T09:24:46.668Z,0.12
2022-08-09T09:26:00.691Z,0.22
2022-08-09T09:26:50.616Z,0
2022-08-09T09:28:04.687Z,0.37
2022-08-09T09:29:02.662Z,0.16
2022-08-09T09:30:26.097Z,1.04
2022-08-09T09:30:58.695Z,0.26
2022-08-09T09:32:02.062Z,1.23
2022-08-09T09:33:02.644Z,0.66
2022-08-09T09:34:04.696Z,0.56
2022-08-09T09:35:07.766Z,0.19
2022-08-09T09:36:11.888Z,0.52
2022-08-09T09:37:13.107Z,0.29
2022-08-09T09:38:18.521Z,0.13
2022-08-09T09:39:14.663Z,0.56
2022-08-09T09:40:17.476Z,0.83
2022-08-09T09:41:18.676Z,0.66
2022-08-09T09:42:20.746Z,1.03
2022-08-09T09:43:22.649Z,0.96
2022-08-09T09:44:25.234Z,0.49
2022-08-09T09:45:29.404Z,0.4
2022-08-09T09:46:46.267Z,0.72
2022-08-09T09:47:32.446Z,0.3
2022-08-09T09:48:33.653Z,1.09
2022-08-09T09:49:50.189Z,0.51
2022-08-09T09:50:37.717Z,0.58
2022-08-09T09:51:40.350Z,0.58
2022-08-09T09:52:41.712Z,0.38
2022-08-09T09:53:57.923Z,0.38
2022-08-09T09:54:48.559Z,0.23
2022-08-09T09:55:47.661Z,0.25
2022-08-09T09:56:53.119Z,0.2
2022-08-09T09:58:02.089Z,0.62
2022-08-09T09:58:53.709Z,0.4
2022-08-09T09:59:55.669Z,0.19
2022-08-09T10:00:59.527Z,0.27
2022-08-09T10:01:59.698Z,0.08
2022-08-09T10:03:09.036Z,0.23
2022-08-09T10:04:06.866Z,0.28
2022-08-09T10:05:06.593Z,0.33
2022-08-09T10:06:07.087Z,0.1
2022-08-09T10:07:09.911Z,0.43
2022-08-09T10:08:26.971Z,0.32
2022-08-09T10:09:21.958Z,0.26
2022-08-09T10:10:14.253Z,0.31
2022-08-09T10:11:54.110Z,0.13
2022-08-09T10:12:27.909Z,0.18
2022-08-09T10:13:23.275Z,0.29
2022-08-09T10:14:18.089Z,0.95
2022-08-09T10:15:25.753Z,1.13
2022-08-09T10:16:56.433Z,1.01
2022-08-09T10:17:40.965Z,0.74
2022-08-09T10:18:24.743Z,0.51
2022-08-09T10:19:27.537Z,0.46
2022-08-09T10:20:37.331Z,0.53
2022-08-09T10:21:36.141Z,0.4
2022-08-09T10:22:37.057Z,0.39
2022-08-09T10:23:39.766Z,1.02
2022-08-09T10:24:40.706Z,1.62
2022-08-09T10:26:04.722Z,0.89
2022-08-09T10:26:44.435Z,0.69
2022-08-09T10:27:56.473Z,1.29
2022-08-09T10:28:48.940Z,0.3
2022-08-09T10:30:29.944Z,0.5
2022-08-09T10:32:54.017Z,1.44
2022-08-09T10:34:09.411Z,1.01
2022-08-09T10:34:57.128Z,0.56
2022-08-09T10:36:00.791Z,0.63
2022-08-09T10:36:59.755Z,0.72
2022-08-09T10:38:01.297Z,1.09
2022-08-09T10:39:02.920Z,1.14
2022-08-09T10:40:04.274Z,0.96
2022-08-09T10:41:05.193Z,0.94
2022-08-09T10:42:06.225Z,0.53
2022-08-09T10:43:08.885Z,0.88
2022-08-09T10:44:09.820Z,0.76
2022-08-09T10:45:16.073Z,0.8
2022-08-09T10:46:19.220Z,0.3
2022-08-09T10:47:20.355Z,0.63
2022-08-09T10:48:25.978Z,0.34
2022-08-09T10:49:17.474Z,0.3
2022-08-09T10:50:21.021Z,0.83
2022-08-09T10:51:20.984Z,0.47
2022-08-09T10:52:22.150Z,0.7
2022-08-09T10:53:24.018Z,1.3
2022-08-09T10:54:25.244Z,0.68
2022-08-09T10:55:26.990Z,1.82
2022-08-09T10:56:28.175Z,0.99
2022-08-09T10:57:29.171Z,0.36
2022-08-09T10:58:30.157Z,0.89
2022-08-09T10:59:31.889Z,1.26
2022-08-09T11:00:33.186Z,0.56
2022-08-09T11:03:03.692Z,0.46
2022-08-09T11:03:03.762Z,0.53
2022-08-09T11:03:47.340Z,0.68
2022-08-09T11:04:37.252Z,0.97
2022-08-09T11:05:38.236Z,0.68
2022-08-09T11:06:39.175Z,0.84
2022-08-09T11:07:56.754Z,0.58
2022-08-09T11:08:46.718Z,0.38
2022-08-09T11:09:47.597Z,0.97
2022-08-09T11:10:47.270Z,0.98
2022-08-09T11:11:51.756Z,0.5
2022-08-09T11:12:45.196Z,0.56
2022-08-09T11:13:49.632Z,0.42
2022-08-09T11:14:47.281Z,0.84
2022-08-09T11:15:51.074Z,0.61
2022-08-09T11:16:49.207Z,0.55
2022-08-09T11:17:53.246Z,0.24
2022-08-09T11:18:51.191Z,0.42
2022-08-09T11:20:07.644Z,0.61
2022-08-09T11:20:53.232Z,0.96
2022-08-09T11:21:54.933Z,0.26
2022-08-09T11:22:55.748Z,0.41
2022-08-09T11:23:56.213Z,0.55
2022-08-09T11:24:57.663Z,0.82
2022-08-09T11:25:58.220Z,0.45
2022-08-09T11:26:59.201Z,0.66
2022-08-09T11:28:03.506Z,0.53
2022-08-09T11:29:01.263Z,0.56
2022-08-09T11:30:05.465Z,0.4
2022-08-09T11:31:03.316Z,1.18
2022-08-09T11:32:04.223Z,0.83
2022-08-09T11:33:05.224Z,0.33
2022-08-09T11:34:06.248Z,0.59
2022-08-09T11:35:07.268Z,1
2022-08-09T11:36:08.317Z,0.83
2022-08-09T11:37:09.252Z,0.5
2022-08-09T11:38:10.232Z,0.49
2022-08-09T11:39:11.419Z,0.3
2022-08-09T11:40:12.446Z,0.56
2022-08-09T11:41:13.411Z,0.46
2022-08-09T11:42:14.552Z,0.06
2022-08-09T11:43:15.293Z,0.39
2022-08-09T11:44:16.239Z,0.88
2022-08-09T11:45:17.314Z,0.62
2022-08-09T11:46:18.556Z,0.61
2022-08-09T11:47:19.251Z,0.92
2022-08-09T11:48:25.421Z,0.43
2022-08-09T11:49:27.964Z,0.45
2022-08-09T11:50:54.495Z,0.77
2022-08-09T11:52:53.731Z,0.46
2022-08-09T11:52:54.278Z,1.06
2022-08-09T11:53:58.225Z,0.71
2022-08-09T11:54:29.090Z,0.34
2022-08-09T11:55:34.853Z,0.39
2022-08-09T11:56:34.238Z,0.47
2022-08-09T11:57:47.328Z,0.61
2022-08-09T11:58:32.878Z,0.83
2022-08-09T11:59:34.098Z,0.68
2022-08-09T12:00:35.254Z,0.56
2022-08-09T12:01:38.038Z,0.38
2022-08-09T12:02:39.733Z,0.45
2022-08-09T12:03:56.484Z,0.51
2022-08-09T12:04:40.444Z,0.41
2022-08-09T12:05:47.115Z,0.44
2022-08-09T12:06:49.148Z,0.56
2022-08-09T12:07:46.408Z,0.57
2022-08-09T12:08:47.342Z,0.18
2022-08-09T12:09:50.255Z,0.48
2022-08-09T12:10:49.329Z,0.64
2022-08-09T12:12:02.841Z,0.68
2022-08-09T12:12:53.016Z,0.82
2022-08-09T12:14:06.818Z,1.45
2022-08-09T12:15:03.700Z,1.66
2022-08-09T12:15:57.335Z,1.45
2022-08-09T12:16:58.391Z,0.9
2022-08-09T12:17:59.488Z,0.61
2022-08-09T12:19:00.648Z,0.71
2022-08-09T12:20:01.307Z,0.54
2022-08-09T12:21:02.649Z,0.43
2022-08-09T12:22:05.050Z,0.39
2022-08-09T12:23:07.403Z,0.48
2022-08-09T12:24:09.343Z,0.29
2022-08-09T12:25:09.546Z,0.85
2022-08-09T12:26:10.386Z,0.63
2022-08-09T12:29:00.523Z,0.72
2022-08-09T12:29:00.871Z,0.59
2022-08-09T12:29:30.105Z,0.45
2022-08-09T12:30:35.158Z,0.38
2022-08-09T12:31:31.398Z,0.24
2022-08-09T12:32:19.667Z,0.46
2022-08-09T12:33:21.555Z,0.69
2022-08-09T12:34:22.351Z,0.47
2022-08-09T12:35:23.340Z,0.72
2022-08-09T12:36:27.956Z,0.51
2022-08-09T12:37:29.168Z,0.23
2022-08-09T12:38:29.890Z,0.33
2022-08-09T12:39:29.618Z,0.25
2022-08-09T12:40:30.354Z,0.23
2022-08-09T12:41:36.600Z,1.07
2022-08-09T12:42:35.588Z,1.34
2022-08-09T12:44:04.451Z,1.03
2022-08-09T12:44:40.033Z,1.93
2022-08-09T12:45:41.412Z,1.76
2022-08-09T12:46:42.384Z,0.86
2022-08-09T12:47:44.282Z,1.06
2022-08-09T12:48:44.410Z,0.27
2022-08-09T12:49:51.165Z,1.48
2022-08-09T12:50:48.466Z,0.9
2022-08-09T12:51:53.037Z,0.7
2022-08-09T12:53:02.710Z,0.53
2022-08-09T12:53:55.121Z,0.5
2022-08-09T12:55:03.399Z,0.8
2022-08-09T12:56:13.301Z,0.6
2022-08-09T12:56:58.259Z,0.39
2022-08-09T12:57:59.465Z,0.41
2022-08-09T12:59:00.406Z,0.8
2022-08-09T13:00:03.559Z,0.66
2022-08-09T13:01:04.337Z,0.79
2022-08-09T13:02:03.441Z,1.12
2022-08-09T13:03:04.447Z,0.52
2022-08-09T13:04:05.408Z,0.64
2022-08-09T13:05:07.567Z,0.47
2022-08-09T13:06:14.822Z,0.14
2022-08-09T13:07:09.406Z,1.07
2022-08-09T13:08:10.457Z,0.58
2022-08-09T13:09:11.430Z,0.63
2022-08-09T13:10:12.436Z,0.45
2022-08-09T13:11:23.477Z,0.58
2022-08-09T13:12:14.434Z,0.39
2022-08-09T13:13:15.431Z,0.72
2022-08-09T13:14:38.565Z,0.5
2022-08-09T13:15:18.434Z,0.93
2022-08-09T13:16:19.440Z,0.83
2022-08-09T13:17:22.120Z,0.93
2022-08-09T13:18:21.429Z,0.85
2022-08-09T13:19:23.080Z,0.61
2022-08-09T13:20:25.224Z,0.48
2022-08-09T13:22:34.758Z,1.03
2022-08-09T13:22:44.146Z,1.02
2022-08-09T13:24:06.865Z,0.67
2022-08-09T13:24:42.452Z,0.9
2022-08-09T13:25:38.604Z,0.89
2022-08-09T13:26:37.502Z,0.98
2022-08-09T13:27:39.785Z,0.69
2022-08-09T13:28:41.062Z,0.42
2022-08-09T13:30:03.447Z,0.35
2022-08-09T13:30:49.836Z,0.62
2022-08-09T13:32:18.412Z,0.49
2022-08-09T13:32:49.095Z,0.39
2022-08-09T13:33:52.518Z,0.22
2022-08-09T13:34:53.073Z,0.32
2022-08-09T13:36:23.937Z,0.44
2022-08-09T13:36:57.095Z,0.52
2022-08-09T13:37:58.476Z,0.52
2022-08-09T13:39:02.575Z,0.53
2022-08-09T13:41:21.531Z,0.31
2022-08-09T13:41:21.883Z,0.52
2022-08-09T13:42:03.577Z,0.23
2022-08-09T13:43:05.450Z,0.51
2022-08-09T13:44:06.482Z,0.27
2022-08-09T13:45:08.434Z,0.51
2022-08-09T13:46:44.886Z,0.45
2022-08-09T13:47:18.169Z,0.37
2022-08-09T13:48:14.441Z,0.05
2022-08-09T13:49:18.221Z,0.33
2022-08-09T13:50:30.217Z,0.58
2022-08-09T13:51:20.143Z,0.18
2022-08-09T13:52:22.183Z,0.27
2022-08-09T13:53:27.081Z,0.43
2022-08-09T13:54:26.136Z,0.27
2022-08-09T13:55:28.848Z,0.16
2022-08-09T13:56:30.129Z,0
2022-08-09T13:57:36.055Z,0.23
2022-08-09T13:58:34.123Z,0.58
2022-08-09T13:59:37.053Z,0.28
2022-08-09T14:00:43.859Z,0.4
2022-08-09T14:06:41.421Z,0.54
2022-08-09T14:07:43.133Z,0.74
2022-08-09T14:08:45.144Z,0.53
2022-08-09T14:09:47.151Z,0.3
2022-08-09T14:10:50.563Z,0.97
2022-08-09T14:11:51.190Z,0.58
2022-08-09T14:12:53.139Z,0.73
2022-08-09T14:14:14.972Z,0.51
2022-08-09T14:14:57.151Z,0.44
2022-08-09T14:16:07.394Z,0.9
2022-08-09T14:17:01.156Z,0.97
2022-08-09T14:18:06.887Z,0.49
2022-08-09T14:19:05.160Z,0.64
2022-08-09T14:20:07.199Z,0.48
2022-08-09T14:21:09.199Z,0.59